sensor_id;sensor_type;location;lat;lon;timestamp;temperature;humidity
8172;DHT22;4127;47.908;10.850;2024-01-30T00:01:56;0.80;99.90
8172;DHT22;4127;47.908;10.850;2024-01-30T00:04:34;0.60;99.90
8172;DHT22;4127;47.908;10.850;2024-01-30T00:07:04;0.70;99.90
8172;DHT22;4127;47.908;10.850;2024-01-30T00:09:34;0.70;99.90
8172;DHT22;4127;47.908;10.850;2024-01-30T00:12:01;0.70;99.90
8172;DHT22;4127;47.908;10.850;2024-01-30T00:14:28;0.60;99.90
8172;DHT22;4127;47.908;10.850;2024-01-30T00:16:55;0.60;99.90
8172;DHT22;4127;47.908;10.850;2024-01-30T00:19:23;0.50;99.90
8172;DHT22;4127;47.908;10.850;2024-01-30T00:21:59;0.50;99.90
8172;DHT22;4127;47.908;10.850;2024-01-30T00:24:26;0.40;99.90
8172;DHT22;4127;47.908;10.850;2024-01-30T00:27:05;0.50;99.90
8172;DHT22;4127;47.908;10.850;2024-01-30T00:29:33;0.60;99.90
8172;DHT22;4127;47.908;10.850;2024-01-30T00:32:00;0.50;99.90
8172;DHT22;4127;47.908;10.850;2024-01-30T00:34:38;0.60;99.90
8172;DHT22;4127;47.908;10.850;2024-01-30T00:37:10;0.60;99.90
8172;DHT22;4127;47.908;10.850;2024-01-30T00:39:38;0.60;99.90
8172;DHT22;4127;47.908;10.850;2024-01-30T00:42:06;0.50;99.90
8172;DHT22;4127;47.908;10.850;2024-01-30T00:44:40;0.40;99.90
8172;DHT22;4127;47.908;10.850;2024-01-30T00:47:06;0.40;99.90
8172;DHT22;4127;47.908;10.850;2024-01-30T00:49:34;0.30;99.90
8172;DHT22;4127;47.908;10.850;2024-01-30T00:52:04;0.30;99.90
8172;DHT22;4127;47.908;10.850;2024-01-30T00:54:31;0.40;99.90
8172;DHT22;4127;47.908;10.850;2024-01-30T00:57:01;0.40;99.90
8172;DHT22;4127;47.908;10.850;2024-01-30T00:59:34;0.50;99.90
8172;DHT22;4127;47.908;10.850;2024-01-30T01:02:01;0.50;99.90
8172;DHT22;4127;47.908;10.850;2024-01-30T01:04:28;0.60;99.90
8172;DHT22;4127;47.908;10.850;2024-01-30T01:06:58;0.40;99.90
8172;DHT22;4127;47.908;10.850;2024-01-30T01:09:28;0.30;99.90
8172;DHT22;4127;47.908;10.850;2024-01-30T01:11:55;0.30;99.90
8172;DHT22;4127;47.908;10.850;2024-01-30T01:14:22;0.20;99.90
8172;DHT22;4127;47.908;10.850;2024-01-30T01:16:49;0.20;99.90
8172;DHT22;4127;47.908;10.850;2024-01-30T01:19:16;0.20;99.90
8172;DHT22;4127;47.908;10.850;2024-01-30T01:21:45;0.20;99.90
8172;DHT22;4127;47.908;10.850;2024-01-30T01:24:21;0.20;99.90
8172;DHT22;4127;47.908;10.850;2024-01-30T01:26:55;0.20;99.90
8172;DHT22;4127;47.908;10.850;2024-01-30T01:29:24;0.10;99.90
8172;DHT22;4127;47.908;10.850;2024-01-30T01:31:56;0.20;99.90
8172;DHT22;4127;47.908;10.850;2024-01-30T01:34:25;0.20;99.90
8172;DHT22;4127;47.908;10.850;2024-01-30T01:36:56;0.20;99.90
8172;DHT22;4127;47.908;10.850;2024-01-30T01:39:24;0.20;99.90
8172;DHT22;4127;47.908;10.850;2024-01-30T01:41:51;0.20;99.90
8172;DHT22;4127;47.908;10.850;2024-01-30T01:44:22;0.20;99.90
8172;DHT22;4127;47.908;10.850;2024-01-30T01:46:52;0.20;99.90
8172;DHT22;4127;47.908;10.850;2024-01-30T01:49:23;0.20;99.90
8172;DHT22;4127;47.908;10.850;2024-01-30T01:51:53;0.20;99.90
8172;DHT22;4127;47.908;10.850;2024-01-30T01:54:21;0.20;99.90
8172;DHT22;4127;47.908;10.850;2024-01-30T01:56:48;0.20;99.90
8172;DHT22;4127;47.908;10.850;2024-01-30T01:59:20;0.20;99.90
8172;DHT22;4127;47.908;10.850;2024-01-30T02:01:54;0.20;99.90
8172;DHT22;4127;47.908;10.850;2024-01-30T02:04:22;0.20;99.90
8172;DHT22;4127;47.908;10.850;2024-01-30T02:06:55;0.10;99.90
8172;DHT22;4127;47.908;10.850;2024-01-30T02:09:29;0.20;99.90
8172;DHT22;4127;47.908;10.850;2024-01-30T02:11:56;0.20;99.90
8172;DHT22;4127;47.908;10.850;2024-01-30T02:14:29;0.20;99.90
8172;DHT22;4127;47.908;10.850;2024-01-30T02:17:00;0.40;99.90
8172;DHT22;4127;47.908;10.850;2024-01-30T02:19:28;0.20;99.90
8172;DHT22;4127;47.908;10.850;2024-01-30T02:21:56;0.20;99.90
8172;DHT22;4127;47.908;10.850;2024-01-30T02:24:26;0.20;99.90
8172;DHT22;4127;47.908;10.850;2024-01-30T02:26:53;0.20;99.90
8172;DHT22;4127;47.908;10.850;2024-01-30T02:29:24;0.10;99.90
8172;DHT22;4127;47.908;10.850;2024-01-30T02:32:00;0.10;99.90
8172;DHT22;4127;47.908;10.850;2024-01-30T02:34:28;0.10;99.90
8172;DHT22;4127;47.908;10.850;2024-01-30T02:37:06;0.00;99.90
8172;DHT22;4127;47.908;10.850;2024-01-30T02:39:35;0.10;99.90
8172;DHT22;4127;47.908;10.850;2024-01-30T02:42:11;0.20;99.90
8172;DHT22;4127;47.908;10.850;2024-01-30T02:44:39;0.30;99.90
8172;DHT22;4127;47.908;10.850;2024-01-30T02:47:06;0.30;99.90
8172;DHT22;4127;47.908;10.850;2024-01-30T02:49:33;0.30;99.90
8172;DHT22;4127;47.908;10.850;2024-01-30T02:52:00;0.40;99.90
8172;DHT22;4127;47.908;10.850;2024-01-30T02:54:27;0.20;99.90
8172;DHT22;4127;47.908;10.850;2024-01-30T02:56:54;0.10;99.90
8172;DHT22;4127;47.908;10.850;2024-01-30T02:59:21;0.00;99.90
8172;DHT22;4127;47.908;10.850;2024-01-30T03:01:48;0.00;99.90
8172;DHT22;4127;47.908;10.850;2024-01-30T03:04:17;0.00;99.90
8172;DHT22;4127;47.908;10.850;2024-01-30T03:06:45;-0.10;99.90
8172;DHT22;4127;47.908;10.850;2024-01-30T03:09:38;-0.10;99.90
8172;DHT22;4127;47.908;10.850;2024-01-30T03:12:09;0.00;99.90
8172;DHT22;4127;47.908;10.850;2024-01-30T03:14:43;-0.10;99.90
8172;DHT22;4127;47.908;10.850;2024-01-30T03:17:22;-0.10;99.90
8172;DHT22;4127;47.908;10.850;2024-01-30T03:19:55;-0.10;99.90
8172;DHT22;4127;47.908;10.850;2024-01-30T03:22:28;-0.10;99.90
8172;DHT22;4127;47.908;10.850;2024-01-30T03:24:56;-0.10;99.90
8172;DHT22;4127;47.908;10.850;2024-01-30T03:27:23;-0.10;99.90
8172;DHT22;4127;47.908;10.850;2024-01-30T03:29:50;-0.10;99.90
8172;DHT22;4127;47.908;10.850;2024-01-30T03:32:25;-0.10;99.90
8172;DHT22;4127;47.908;10.850;2024-01-30T03:34:54;0.00;99.90
8172;DHT22;4127;47.908;10.850;2024-01-30T03:37:21;-0.10;99.90
8172;DHT22;4127;47.908;10.850;2024-01-30T03:39:49;-0.20;99.90
8172;DHT22;4127;47.908;10.850;2024-01-30T03:42:16;-0.20;99.90
8172;DHT22;4127;47.908;10.850;2024-01-30T03:44:46;-0.10;99.90
8172;DHT22;4127;47.908;10.850;2024-01-30T03:47:13;-0.10;99.90
8172;DHT22;4127;47.908;10.850;2024-01-30T03:49:43;-0.10;99.90
8172;DHT22;4127;47.908;10.850;2024-01-30T03:52:10;0.00;99.90
8172;DHT22;4127;47.908;10.850;2024-01-30T03:54:43;0.00;99.90
8172;DHT22;4127;47.908;10.850;2024-01-30T03:57:10;0.00;99.90
8172;DHT22;4127;47.908;10.850;2024-01-30T03:59:47;0.10;99.90
8172;DHT22;4127;47.908;10.850;2024-01-30T04:02:14;0.20;99.90
8172;DHT22;4127;47.908;10.850;2024-01-30T04:04:47;0.00;99.90
8172;DHT22;4127;47.908;10.850;2024-01-30T04:07:16;0.00;99.90
8172;DHT22;4127;47.908;10.850;2024-01-30T04:09:50;0.10;99.90
8172;DHT22;4127;47.908;10.850;2024-01-30T04:12:19;0.10;99.90
8172;DHT22;4127;47.908;10.850;2024-01-30T04:14:52;0.10;99.90
8172;DHT22;4127;47.908;10.850;2024-01-30T04:17:19;0.10;99.90
8172;DHT22;4127;47.908;10.850;2024-01-30T04:19:49;0.20;99.90
8172;DHT22;4127;47.908;10.850;2024-01-30T04:22:19;0.20;99.90
8172;DHT22;4127;47.908;10.850;2024-01-30T04:25:06;0.20;99.90
8172;DHT22;4127;47.908;10.850;2024-01-30T04:27:50;0.20;99.90
8172;DHT22;4127;47.908;10.850;2024-01-30T04:30:26;0.10;99.90
8172;DHT22;4127;47.908;10.850;2024-01-30T04:32:53;0.20;99.90
8172;DHT22;4127;47.908;10.850;2024-01-30T04:35:43;0.10;99.90
8172;DHT22;4127;47.908;10.850;2024-01-30T04:38:13;0.10;99.90
8172;DHT22;4127;47.908;10.850;2024-01-30T04:40:41;0.10;99.90
8172;DHT22;4127;47.908;10.850;2024-01-30T04:43:11;0.20;99.90
8172;DHT22;4127;47.908;10.850;2024-01-30T04:45:38;0.10;99.90
8172;DHT22;4127;47.908;10.850;2024-01-30T04:48:07;0.20;99.90
8172;DHT22;4127;47.908;10.850;2024-01-30T04:50:34;0.20;99.90
8172;DHT22;4127;47.908;10.850;2024-01-30T04:53:05;0.20;99.90
8172;DHT22;4127;47.908;10.850;2024-01-30T04:55:32;0.20;99.90
8172;DHT22;4127;47.908;10.850;2024-01-30T04:57:59;0.20;99.90
8172;DHT22;4127;47.908;10.850;2024-01-30T05:00:26;0.20;99.90
8172;DHT22;4127;47.908;10.850;2024-01-30T05:02:55;0.20;99.90
8172;DHT22;4127;47.908;10.850;2024-01-30T05:05:22;0.20;99.90
8172;DHT22;4127;47.908;10.850;2024-01-30T05:08:03;0.20;99.90
8172;DHT22;4127;47.908;10.850;2024-01-30T05:10:33;0.20;99.90
8172;DHT22;4127;47.908;10.850;2024-01-30T05:13:01;0.40;99.90
8172;DHT22;4127;47.908;10.850;2024-01-30T05:15:28;0.30;99.90
8172;DHT22;4127;47.908;10.850;2024-01-30T05:17:56;0.30;99.90
8172;DHT22;4127;47.908;10.850;2024-01-30T05:20:23;0.40;99.90
8172;DHT22;4127;47.908;10.850;2024-01-30T05:22:50;0.40;99.90
8172;DHT22;4127;47.908;10.850;2024-01-30T05:25:17;0.50;99.90
8172;DHT22;4127;47.908;10.850;2024-01-30T05:27:47;0.40;99.90
8172;DHT22;4127;47.908;10.850;2024-01-30T05:30:17;0.50;99.90
8172;DHT22;4127;47.908;10.850;2024-01-30T05:33:13;0.50;99.90
8172;DHT22;4127;47.908;10.850;2024-01-30T05:35:54;0.50;99.90
8172;DHT22;4127;47.908;10.850;2024-01-30T05:38:53;0.50;99.90
8172;DHT22;4127;47.908;10.850;2024-01-30T05:41:28;0.50;99.90
8172;DHT22;4127;47.908;10.850;2024-01-30T05:44:01;0.60;99.90
8172;DHT22;4127;47.908;10.850;2024-01-30T05:46:30;0.60;99.90
8172;DHT22;4127;47.908;10.850;2024-01-30T05:48:58;0.60;99.90
8172;DHT22;4127;47.908;10.850;2024-01-30T05:51:25;0.60;99.90
8172;DHT22;4127;47.908;10.850;2024-01-30T05:53:52;0.50;99.90
8172;DHT22;4127;47.908;10.850;2024-01-30T05:56:20;0.40;99.90
8172;DHT22;4127;47.908;10.850;2024-01-30T05:58:50;0.40;99.90
8172;DHT22;4127;47.908;10.850;2024-01-30T06:01:25;0.30;99.90
8172;DHT22;4127;47.908;10.850;2024-01-30T06:03:52;0.30;99.90
8172;DHT22;4127;47.908;10.850;2024-01-30T06:06:19;0.30;99.90
8172;DHT22;4127;47.908;10.850;2024-01-30T06:08:49;0.30;99.90
8172;DHT22;4127;47.908;10.850;2024-01-30T06:11:16;0.30;99.90
8172;DHT22;4127;47.908;10.850;2024-01-30T06:13:43;0.30;99.90
8172;DHT22;4127;47.908;10.850;2024-01-30T06:16:10;0.30;99.90
8172;DHT22;4127;47.908;10.850;2024-01-30T06:18:39;0.30;99.90
8172;DHT22;4127;47.908;10.850;2024-01-30T06:21:15;0.30;99.90
8172;DHT22;4127;47.908;10.850;2024-01-30T06:23:42;0.30;99.90
8172;DHT22;4127;47.908;10.850;2024-01-30T06:26:16;0.30;99.90
8172;DHT22;4127;47.908;10.850;2024-01-30T06:28:43;0.40;99.90
8172;DHT22;4127;47.908;10.850;2024-01-30T06:31:14;0.40;99.90
8172;DHT22;4127;47.908;10.850;2024-01-30T06:33:41;0.40;99.90
8172;DHT22;4127;47.908;10.850;2024-01-30T06:36:14;0.40;99.90
8172;DHT22;4127;47.908;10.850;2024-01-30T06:38:41;0.30;99.90
8172;DHT22;4127;47.908;10.850;2024-01-30T06:41:08;0.20;99.90
8172;DHT22;4127;47.908;10.850;2024-01-30T06:43:41;0.20;99.90
8172;DHT22;4127;47.908;10.850;2024-01-30T06:46:15;0.20;99.90
8172;DHT22;4127;47.908;10.850;2024-01-30T06:48:45;0.20;99.90
8172;DHT22;4127;47.908;10.850;2024-01-30T06:51:12;0.30;99.90
8172;DHT22;4127;47.908;10.850;2024-01-30T06:53:44;0.30;99.90
8172;DHT22;4127;47.908;10.850;2024-01-30T06:56:11;0.30;99.90
8172;DHT22;4127;47.908;10.850;2024-01-30T06:58:37;0.40;99.90
8172;DHT22;4127;47.908;10.850;2024-01-30T07:01:06;0.30;99.90
8172;DHT22;4127;47.908;10.850;2024-01-30T07:03:37;0.40;99.90
8172;DHT22;4127;47.908;10.850;2024-01-30T07:06:04;0.30;99.90
8172;DHT22;4127;47.908;10.850;2024-01-30T07:08:31;0.40;99.90
8172;DHT22;4127;47.908;10.850;2024-01-30T07:10:58;0.50;99.90
8172;DHT22;4127;47.908;10.850;2024-01-30T07:13:28;0.40;99.90
8172;DHT22;4127;47.908;10.850;2024-01-30T07:15:55;0.40;99.90
8172;DHT22;4127;47.908;10.850;2024-01-30T07:18:22;0.60;99.90
8172;DHT22;4127;47.908;10.850;2024-01-30T07:20:49;0.60;99.90
8172;DHT22;4127;47.908;10.850;2024-01-30T07:23:17;0.60;99.90
8172;DHT22;4127;47.908;10.850;2024-01-30T07:25:44;0.60;99.90
8172;DHT22;4127;47.908;10.850;2024-01-30T07:28:24;0.70;99.90
8172;DHT22;4127;47.908;10.850;2024-01-30T07:30:51;0.70;99.90
8172;DHT22;4127;47.908;10.850;2024-01-30T07:33:21;0.70;99.90
8172;DHT22;4127;47.908;10.850;2024-01-30T07:35:48;0.80;99.90
8172;DHT22;4127;47.908;10.850;2024-01-30T07:38:20;1.00;99.90
8172;DHT22;4127;47.908;10.850;2024-01-30T07:40:47;1.00;99.90
8172;DHT22;4127;47.908;10.850;2024-01-30T07:43:14;1.10;99.90
8172;DHT22;4127;47.908;10.850;2024-01-30T07:45:41;1.10;99.90
8172;DHT22;4127;47.908;10.850;2024-01-30T07:48:08;1.10;99.90
8172;DHT22;4127;47.908;10.850;2024-01-30T07:50:45;1.20;99.90
8172;DHT22;4127;47.908;10.850;2024-01-30T07:53:12;1.30;99.90
8172;DHT22;4127;47.908;10.850;2024-01-30T07:55:39;1.30;99.90
8172;DHT22;4127;47.908;10.850;2024-01-30T07:58:06;1.30;99.90
8172;DHT22;4127;47.908;10.850;2024-01-30T08:00:32;1.40;99.90
8172;DHT22;4127;47.908;10.850;2024-01-30T08:02:59;1.60;99.90
8172;DHT22;4127;47.908;10.850;2024-01-30T08:05:26;1.60;99.90
8172;DHT22;4127;47.908;10.850;2024-01-30T08:07:53;1.70;99.90
8172;DHT22;4127;47.908;10.850;2024-01-30T08:10:21;1.80;99.90
8172;DHT22;4127;47.908;10.850;2024-01-30T08:12:48;1.90;99.90
8172;DHT22;4127;47.908;10.850;2024-01-30T08:15:15;2.00;99.90
8172;DHT22;4127;47.908;10.850;2024-01-30T08:17:42;2.10;99.90
8172;DHT22;4127;47.908;10.850;2024-01-30T08:20:09;2.20;99.90
8172;DHT22;4127;47.908;10.850;2024-01-30T08:22:39;2.30;99.90
8172;DHT22;4127;47.908;10.850;2024-01-30T08:25:07;2.50;99.90
8172;DHT22;4127;47.908;10.850;2024-01-30T08:27:34;2.50;99.90
8172;DHT22;4127;47.908;10.850;2024-01-30T08:30:02;2.70;99.90
8172;DHT22;4127;47.908;10.850;2024-01-30T08:32:30;2.80;99.90
8172;DHT22;4127;47.908;10.850;2024-01-30T08:34:57;2.90;99.90
8172;DHT22;4127;47.908;10.850;2024-01-30T08:37:24;3.00;99.90
8172;DHT22;4127;47.908;10.850;2024-01-30T08:39:51;3.20;99.90
8172;DHT22;4127;47.908;10.850;2024-01-30T08:42:18;3.40;99.90
8172;DHT22;4127;47.908;10.850;2024-01-30T08:44:49;3.60;99.90
8172;DHT22;4127;47.908;10.850;2024-01-30T08:47:18;3.80;99.90
8172;DHT22;4127;47.908;10.850;2024-01-30T08:49:45;4.00;99.90
8172;DHT22;4127;47.908;10.850;2024-01-30T08:52:12;4.10;99.90
8172;DHT22;4127;47.908;10.850;2024-01-30T08:54:39;4.20;99.90
8172;DHT22;4127;47.908;10.850;2024-01-30T08:57:06;4.30;99.90
8172;DHT22;4127;47.908;10.850;2024-01-30T08:59:33;4.40;99.90
8172;DHT22;4127;47.908;10.850;2024-01-30T09:02:00;4.50;99.90
8172;DHT22;4127;47.908;10.850;2024-01-30T09:04:38;4.70;99.90
8172;DHT22;4127;47.908;10.850;2024-01-30T09:07:06;4.80;99.90
8172;DHT22;4127;47.908;10.850;2024-01-30T09:09:39;5.00;99.90
8172;DHT22;4127;47.908;10.850;2024-01-30T09:12:07;5.10;99.90
8172;DHT22;4127;47.908;10.850;2024-01-30T09:14:37;5.20;99.90
8172;DHT22;4127;47.908;10.850;2024-01-30T09:17:04;5.30;99.90
8172;DHT22;4127;47.908;10.850;2024-01-30T09:19:31;5.50;99.90
8172;DHT22;4127;47.908;10.850;2024-01-30T09:21:59;5.60;99.90
8172;DHT22;4127;47.908;10.850;2024-01-30T09:24:27;5.70;99.90
8172;DHT22;4127;47.908;10.850;2024-01-30T09:26:54;5.80;99.90
8172;DHT22;4127;47.908;10.850;2024-01-30T09:29:21;6.00;99.90
8172;DHT22;4127;47.908;10.850;2024-01-30T09:31:48;6.10;99.90
8172;DHT22;4127;47.908;10.850;2024-01-30T09:34:15;6.20;99.90
8172;DHT22;4127;47.908;10.850;2024-01-30T09:36:42;6.30;99.90
8172;DHT22;4127;47.908;10.850;2024-01-30T09:39:09;6.50;99.90
8172;DHT22;4127;47.908;10.850;2024-01-30T09:41:47;6.70;99.90
8172;DHT22;4127;47.908;10.850;2024-01-30T09:44:16;6.90;99.90
8172;DHT22;4127;47.908;10.850;2024-01-30T09:46:46;7.10;99.90
8172;DHT22;4127;47.908;10.850;2024-01-30T09:49:14;7.30;99.90
8172;DHT22;4127;47.908;10.850;2024-01-30T09:51:44;7.50;99.90
8172;DHT22;4127;47.908;10.850;2024-01-30T09:54:14;7.70;99.90
8172;DHT22;4127;47.908;10.850;2024-01-30T09:56:42;7.80;99.90
8172;DHT22;4127;47.908;10.850;2024-01-30T09:59:09;7.90;99.90
8172;DHT22;4127;47.908;10.850;2024-01-30T10:01:36;8.00;99.90
8172;DHT22;4127;47.908;10.850;2024-01-30T10:04:04;8.20;99.90
8172;DHT22;4127;47.908;10.850;2024-01-30T10:06:31;8.30;99.90
8172;DHT22;4127;47.908;10.850;2024-01-30T10:08:58;8.50;99.90
8172;DHT22;4127;47.908;10.850;2024-01-30T10:11:25;8.60;99.90
8172;DHT22;4127;47.908;10.850;2024-01-30T10:13:52;8.70;99.90
8172;DHT22;4127;47.908;10.850;2024-01-30T10:16:19;8.80;99.90
8172;DHT22;4127;47.908;10.850;2024-01-30T10:18:46;8.80;99.90
8172;DHT22;4127;47.908;10.850;2024-01-30T10:21:13;8.70;99.90
8172;DHT22;4127;47.908;10.850;2024-01-30T10:23:39;8.70;99.90
8172;DHT22;4127;47.908;10.850;2024-01-30T10:26:07;8.60;99.90
8172;DHT22;4127;47.908;10.850;2024-01-30T10:28:34;8.60;99.90
8172;DHT22;4127;47.908;10.850;2024-01-30T10:31:02;8.70;99.90
8172;DHT22;4127;47.908;10.850;2024-01-30T10:33:33;8.90;99.90
8172;DHT22;4127;47.908;10.850;2024-01-30T10:36:02;9.10;99.90
8172;DHT22;4127;47.908;10.850;2024-01-30T10:38:32;9.40;99.90
8172;DHT22;4127;47.908;10.850;2024-01-30T10:41:01;9.70;98.30
8172;DHT22;4127;47.908;10.850;2024-01-30T10:43:40;9.90;99.00
8172;DHT22;4127;47.908;10.850;2024-01-30T10:46:18;10.10;96.60
8172;DHT22;4127;47.908;10.850;2024-01-30T10:48:57;10.20;94.10
8172;DHT22;4127;47.908;10.850;2024-01-30T10:51:28;10.10;96.40
8172;DHT22;4127;47.908;10.850;2024-01-30T10:53:56;10.10;96.70
8172;DHT22;4127;47.908;10.850;2024-01-30T10:56:25;10.10;94.70
8172;DHT22;4127;47.908;10.850;2024-01-30T10:58:53;10.00;96.10
8172;DHT22;4127;47.908;10.850;2024-01-30T11:01:24;10.00;98.20
8172;DHT22;4127;47.908;10.850;2024-01-30T11:03:52;10.00;98.10
8172;DHT22;4127;47.908;10.850;2024-01-30T11:06:25;10.00;96.60
8172;DHT22;4127;47.908;10.850;2024-01-30T11:09:03;10.10;95.90
8172;DHT22;4127;47.908;10.850;2024-01-30T11:11:49;10.10;94.70
8172;DHT22;4127;47.908;10.850;2024-01-30T11:14:16;10.20;96.00
8172;DHT22;4127;47.908;10.850;2024-01-30T11:16:43;10.30;96.10
8172;DHT22;4127;47.908;10.850;2024-01-30T11:19:12;10.50;93.50
8172;DHT22;4127;47.908;10.850;2024-01-30T11:21:42;10.50;93.50
8172;DHT22;4127;47.908;10.850;2024-01-30T11:24:09;10.60;92.70
8172;DHT22;4127;47.908;10.850;2024-01-30T11:26:36;10.70;92.90
8172;DHT22;4127;47.908;10.850;2024-01-30T11:29:03;10.80;92.30
8172;DHT22;4127;47.908;10.850;2024-01-30T11:31:31;10.80;92.90
8172;DHT22;4127;47.908;10.850;2024-01-30T11:33:58;10.90;94.30
8172;DHT22;4127;47.908;10.850;2024-01-30T11:36:26;11.10;94.00
8172;DHT22;4127;47.908;10.850;2024-01-30T11:38:54;11.10;94.60
8172;DHT22;4127;47.908;10.850;2024-01-30T11:41:22;11.20;93.90
8172;DHT22;4127;47.908;10.850;2024-01-30T11:43:53;11.20;94.10
8172;DHT22;4127;47.908;10.850;2024-01-30T11:46:21;11.30;94.10
8172;DHT22;4127;47.908;10.850;2024-01-30T11:48:48;11.30;93.30
8172;DHT22;4127;47.908;10.850;2024-01-30T11:51:15;11.30;93.20
8172;DHT22;4127;47.908;10.850;2024-01-30T11:53:49;11.40;94.00
8172;DHT22;4127;47.908;10.850;2024-01-30T11:56:16;11.50;93.20
8172;DHT22;4127;47.908;10.850;2024-01-30T11:58:43;11.50;94.80
8172;DHT22;4127;47.908;10.850;2024-01-30T12:01:11;11.60;94.40
8172;DHT22;4127;47.908;10.850;2024-01-30T12:03:38;11.70;94.00
8172;DHT22;4127;47.908;10.850;2024-01-30T12:06:05;11.70;92.80
8172;DHT22;4127;47.908;10.850;2024-01-30T12:08:33;11.80;93.70
8172;DHT22;4127;47.908;10.850;2024-01-30T12:11:00;11.90;94.10
8172;DHT22;4127;47.908;10.850;2024-01-30T12:13:32;11.90;90.80
8172;DHT22;4127;47.908;10.850;2024-01-30T12:16:00;11.80;93.00
8172;DHT22;4127;47.908;10.850;2024-01-30T12:18:28;11.90;93.30
8172;DHT22;4127;47.908;10.850;2024-01-30T12:21:01;11.90;93.30
8172;DHT22;4127;47.908;10.850;2024-01-30T12:23:29;11.90;91.80
8172;DHT22;4127;47.908;10.850;2024-01-30T12:25:56;11.90;90.20
8172;DHT22;4127;47.908;10.850;2024-01-30T12:28:24;12.00;85.90
8172;DHT22;4127;47.908;10.850;2024-01-30T12:31:00;12.00;87.80
8172;DHT22;4127;47.908;10.850;2024-01-30T12:33:29;12.00;82.60
8172;DHT22;4127;47.908;10.850;2024-01-30T12:35:57;12.00;82.40
8172;DHT22;4127;47.908;10.850;2024-01-30T12:38:29;12.10;84.30
8172;DHT22;4127;47.908;10.850;2024-01-30T12:40:56;12.10;83.30
8172;DHT22;4127;47.908;10.850;2024-01-30T12:43:25;12.10;82.40
8172;DHT22;4127;47.908;10.850;2024-01-30T12:46:04;12.10;79.90
8172;DHT22;4127;47.908;10.850;2024-01-30T12:48:31;12.20;81.30
8172;DHT22;4127;47.908;10.850;2024-01-30T12:50:58;12.30;78.40
8172;DHT22;4127;47.908;10.850;2024-01-30T12:53:25;12.30;74.60
8172;DHT22;4127;47.908;10.850;2024-01-30T12:55:52;12.30;73.30
8172;DHT22;4127;47.908;10.850;2024-01-30T12:58:21;12.20;72.30
8172;DHT22;4127;47.908;10.850;2024-01-30T13:00:48;12.30;74.90
8172;DHT22;4127;47.908;10.850;2024-01-30T13:03:15;12.20;76.90
8172;DHT22;4127;47.908;10.850;2024-01-30T13:05:42;12.20;75.80
8172;DHT22;4127;47.908;10.850;2024-01-30T13:08:09;12.30;77.50
8172;DHT22;4127;47.908;10.850;2024-01-30T13:10:36;12.40;78.60
8172;DHT22;4127;47.908;10.850;2024-01-30T13:13:03;12.50;79.00
8172;DHT22;4127;47.908;10.850;2024-01-30T13:15:35;12.70;80.60
8172;DHT22;4127;47.908;10.850;2024-01-30T13:18:02;12.70;81.00
8172;DHT22;4127;47.908;10.850;2024-01-30T13:20:29;12.80;81.40
8172;DHT22;4127;47.908;10.850;2024-01-30T13:22:56;12.90;79.60
8172;DHT22;4127;47.908;10.850;2024-01-30T13:25:23;12.90;81.60
8172;DHT22;4127;47.908;10.850;2024-01-30T13:27:50;13.00;81.90
8172;DHT22;4127;47.908;10.850;2024-01-30T13:30:17;13.00;82.80
8172;DHT22;4127;47.908;10.850;2024-01-30T13:32:44;13.10;79.70
8172;DHT22;4127;47.908;10.850;2024-01-30T13:35:12;13.00;79.90
8172;DHT22;4127;47.908;10.850;2024-01-30T13:37:39;13.00;81.30
8172;DHT22;4127;47.908;10.850;2024-01-30T13:40:06;12.90;81.30
8172;DHT22;4127;47.908;10.850;2024-01-30T13:42:37;12.80;80.20
8172;DHT22;4127;47.908;10.850;2024-01-30T13:45:04;12.70;80.20
8172;DHT22;4127;47.908;10.850;2024-01-30T13:47:31;12.60;79.10
8172;DHT22;4127;47.908;10.850;2024-01-30T13:49:58;12.60;79.60
8172;DHT22;4127;47.908;10.850;2024-01-30T13:52:25;12.60;81.10
8172;DHT22;4127;47.908;10.850;2024-01-30T13:55:01;12.50;82.10
8172;DHT22;4127;47.908;10.850;2024-01-30T13:57:28;12.50;81.60
8172;DHT22;4127;47.908;10.850;2024-01-30T13:59:55;12.50;82.80
8172;DHT22;4127;47.908;10.850;2024-01-30T14:02:22;12.50;83.30
8172;DHT22;4127;47.908;10.850;2024-01-30T14:04:49;12.40;83.10
8172;DHT22;4127;47.908;10.850;2024-01-30T14:07:16;12.30;84.20
8172;DHT22;4127;47.908;10.850;2024-01-30T14:09:45;12.30;85.10
8172;DHT22;4127;47.908;10.850;2024-01-30T14:12:12;12.40;85.60
8172;DHT22;4127;47.908;10.850;2024-01-30T14:14:40;12.30;86.40
8172;DHT22;4127;47.908;10.850;2024-01-30T14:17:07;12.30;86.10
8172;DHT22;4127;47.908;10.850;2024-01-30T14:19:35;12.30;87.20
8172;DHT22;4127;47.908;10.850;2024-01-30T14:22:03;12.30;87.90
8172;DHT22;4127;47.908;10.850;2024-01-30T14:24:30;12.30;88.70
8172;DHT22;4127;47.908;10.850;2024-01-30T14:26:57;12.30;89.10
8172;DHT22;4127;47.908;10.850;2024-01-30T14:29:24;12.30;88.90
8172;DHT22;4127;47.908;10.850;2024-01-30T14:31:51;12.30;88.50
8172;DHT22;4127;47.908;10.850;2024-01-30T14:34:17;12.30;88.10
8172;DHT22;4127;47.908;10.850;2024-01-30T14:36:46;12.20;88.60
8172;DHT22;4127;47.908;10.850;2024-01-30T14:39:13;12.20;89.00
8172;DHT22;4127;47.908;10.850;2024-01-30T14:41:40;12.20;88.60
8172;DHT22;4127;47.908;10.850;2024-01-30T14:44:07;12.20;90.20
8172;DHT22;4127;47.908;10.850;2024-01-30T14:46:35;12.20;90.40
8172;DHT22;4127;47.908;10.850;2024-01-30T14:49:03;12.10;90.10
8172;DHT22;4127;47.908;10.850;2024-01-30T14:51:32;12.10;90.20
8172;DHT22;4127;47.908;10.850;2024-01-30T14:54:00;12.10;90.20
8172;DHT22;4127;47.908;10.850;2024-01-30T14:56:27;12.10;90.10
8172;DHT22;4127;47.908;10.850;2024-01-30T14:58:55;12.00;90.10
8172;DHT22;4127;47.908;10.850;2024-01-30T15:01:22;12.00;90.10
8172;DHT22;4127;47.908;10.850;2024-01-30T15:03:49;11.90;90.30
8172;DHT22;4127;47.908;10.850;2024-01-30T15:06:18;11.90;90.70
8172;DHT22;4127;47.908;10.850;2024-01-30T15:08:45;11.90;90.30
8172;DHT22;4127;47.908;10.850;2024-01-30T15:11:12;11.80;90.80
8172;DHT22;4127;47.908;10.850;2024-01-30T15:13:39;11.80;91.20
8172;DHT22;4127;47.908;10.850;2024-01-30T15:16:08;11.70;91.10
8172;DHT22;4127;47.908;10.850;2024-01-30T15:18:35;11.60;90.90
8172;DHT22;4127;47.908;10.850;2024-01-30T15:21:02;11.60;90.70
8172;DHT22;4127;47.908;10.850;2024-01-30T15:23:29;11.50;91.10
8172;DHT22;4127;47.908;10.850;2024-01-30T15:25:56;11.50;91.20
8172;DHT22;4127;47.908;10.850;2024-01-30T15:28:35;11.40;92.30
8172;DHT22;4127;47.908;10.850;2024-01-30T15:31:04;11.40;91.70
8172;DHT22;4127;47.908;10.850;2024-01-30T15:33:32;11.30;90.00
8172;DHT22;4127;47.908;10.850;2024-01-30T15:36:01;11.20;89.90
8172;DHT22;4127;47.908;10.850;2024-01-30T15:38:28;11.10;89.60
8172;DHT22;4127;47.908;10.850;2024-01-30T15:40:58;11.10;90.00
8172;DHT22;4127;47.908;10.850;2024-01-30T15:43:25;11.00;90.70
8172;DHT22;4127;47.908;10.850;2024-01-30T15:45:52;10.90;91.00
8172;DHT22;4127;47.908;10.850;2024-01-30T15:48:20;10.80;91.40
8172;DHT22;4127;47.908;10.850;2024-01-30T15:50:47;10.70;91.60
8172;DHT22;4127;47.908;10.850;2024-01-30T15:53:14;10.60;91.80
8172;DHT22;4127;47.908;10.850;2024-01-30T15:55:41;10.50;92.50
8172;DHT22;4127;47.908;10.850;2024-01-30T15:58:08;10.40;93.40
8172;DHT22;4127;47.908;10.850;2024-01-30T16:00:35;10.20;94.00
8172;DHT22;4127;47.908;10.850;2024-01-30T16:03:02;10.00;94.40
8172;DHT22;4127;47.908;10.850;2024-01-30T16:05:29;9.90;94.80
8172;DHT22;4127;47.908;10.850;2024-01-30T16:07:55;9.80;95.10